createdAt,value
2023-10-24T00:03:36.287Z,78
2023-10-24T00:09:11.576Z,78.1
2023-10-24T00:14:47.300Z,78.2
2023-10-24T00:20:23.082Z,78.1
2023-10-24T00:25:58.873Z,78
2023-10-24T00:31:34.700Z,78.1
2023-10-24T00:37:11.443Z,78
2023-10-24T00:42:47.010Z,77.9
2023-10-24T00:48:22.432Z,77.9
2023-10-24T00:53:57.957Z,77.9
2023-10-24T00:59:33.357Z,77.9
2023-10-24T01:05:08.553Z,78
2023-10-24T01:10:44.832Z,77.8
2023-10-24T01:16:20.668Z,77.7
2023-10-24T01:21:57.688Z,77.6
2023-10-24T01:27:33.536Z,77.7
2023-10-24T01:33:09.215Z,77.7
2023-10-24T01:38:45.043Z,77.7
2023-10-24T01:44:20.872Z,77.6
2023-10-24T01:49:55.803Z,77.5
2023-10-24T01:55:31.066Z,77.5
2023-10-24T02:01:07.475Z,77.6
2023-10-24T02:06:44.788Z,77.6
2023-10-24T02:12:19.880Z,77.7
2023-10-24T02:17:55.960Z,77.6
2023-10-24T02:23:31.414Z,77.6
2023-10-24T02:29:06.745Z,77.8
2023-10-24T02:34:43.450Z,77.6
2023-10-24T02:40:20.347Z,77.8
2023-10-24T02:45:55.908Z,77.8
2023-10-24T02:51:32.313Z,77.8
2023-10-24T02:57:08.222Z,77.8
2023-10-24T03:02:43.419Z,77.7
2023-10-24T03:08:19.248Z,77.7
2023-10-24T03:13:54.549Z,77.7
2023-10-24T03:19:30.731Z,77.7
2023-10-24T03:25:07.178Z,77.7
2023-10-24T03:30:42.737Z,77.7
2023-10-24T03:36:18.650Z,77.7
2023-10-24T03:41:54.688Z,77.8
2023-10-24T03:47:30.890Z,77.8
2023-10-24T03:53:07.304Z,77.8
2023-10-24T03:58:43.401Z,77.9
2023-10-24T04:04:19.197Z,77.9
2023-10-24T04:09:54.486Z,77.8
2023-10-24T04:15:29.864Z,77.8
2023-10-24T04:21:05.643Z,77.8
2023-10-24T04:26:41.239Z,77.7
2023-10-24T04:32:17.003Z,77.7
2023-10-24T04:37:52.176Z,77.6
2023-10-24T04:43:27.976Z,77.6
2023-10-24T04:49:04.140Z,77.5
2023-10-24T04:54:39.212Z,77.6
2023-10-24T05:00:16.104Z,77.6
2023-10-24T05:05:51.513Z,77.5
2023-10-24T05:11:26.705Z,77.4
2023-10-24T05:17:02.009Z,77.4
2023-10-24T05:22:39.073Z,77.4
2023-10-24T05:28:15.223Z,77.4
2023-10-24T05:33:51.550Z,77.4
2023-10-24T05:39:27.533Z,77.4
2023-10-24T05:45:02.899Z,77.2
2023-10-24T05:50:39.197Z,77.1
2023-10-24T05:56:15.333Z,77.2
2023-10-24T06:01:52.406Z,77.4
2023-10-24T06:07:29.393Z,77.4
2023-10-24T06:13:05.261Z,77.4
2023-10-24T06:18:40.389Z,77.5
2023-10-24T06:24:16.235Z,77.5
2023-10-24T06:29:52.061Z,77.3
2023-10-24T06:35:27.898Z,77.3
2023-10-24T06:41:03.325Z,77.3
2023-10-24T06:46:38.918Z,77.3
2023-10-24T06:52:14.695Z,77.2
2023-10-24T06:57:49.935Z,77.3
2023-10-24T07:03:25.688Z,78.9
2023-10-24T07:09:02.153Z,81.7
2023-10-24T07:14:37.456Z,82.7
2023-10-24T07:20:13.210Z,82.5
2023-10-24T07:25:49.174Z,82.1
2023-10-24T07:31:25.988Z,82.5
2023-10-24T07:37:02.351Z,82.7
2023-10-24T07:42:37.841Z,82.4
2023-10-24T07:48:13.739Z,81.1
2023-10-24T07:53:50.419Z,80.8
2023-10-24T07:59:25.582Z,79.5
2023-10-24T08:05:01.140Z,78.4
2023-10-24T08:10:38.382Z,78.1
2023-10-24T08:16:14.038Z,79.3
2023-10-24T08:21:50.009Z,80.4
2023-10-24T08:27:26.392Z,80.6
2023-10-24T08:33:01.665Z,80.7
2023-10-24T08:38:38.300Z,82.5
2023-10-24T08:44:14.048Z,82.5
2023-10-24T08:49:49.363Z,80.4
2023-10-24T08:55:26.327Z,79.2
2023-10-24T09:01:02.424Z,80.2
2023-10-24T09:06:39.088Z,79.9
2023-10-24T09:12:15.082Z,81.7
2023-10-24T09:17:51.779Z,78.8
2023-10-24T09:23:29.609Z,77.4
2023-10-24T09:29:05.220Z,75.6
2023-10-24T09:34:42.017Z,76
2023-10-24T09:40:18.549Z,72.9
2023-10-24T09:45:53.765Z,76.9
2023-10-24T09:51:30.433Z,73.7
2023-10-24T09:57:05.810Z,71.7
2023-10-24T10:02:41.263Z,76.4
2023-10-24T10:08:19.618Z,71.8
2023-10-24T10:13:55.370Z,73.5
2023-10-24T10:19:31.157Z,76.2
2023-10-24T10:25:07.265Z,73
2023-10-24T10:30:56.456Z,67.6
2023-10-24T10:38:51.119Z,69.2
2023-10-24T10:44:26.412Z,66.2
2023-10-24T10:50:01.722Z,67
2023-10-24T10:55:37.683Z,60.3
2023-10-24T11:01:13.275Z,65.3
2023-10-24T11:06:48.983Z,65.2
2023-10-24T11:12:24.629Z,63.8
2023-10-24T11:18:00.243Z,58.5
2023-10-24T11:23:36.355Z,55.5
2023-10-24T11:29:11.750Z,62.8
2023-10-24T11:34:47.780Z,63.9
2023-10-24T11:40:23.811Z,57.7
2023-10-24T11:45:59.710Z,60.2
2023-10-24T11:51:37.030Z,58.3
2023-10-24T11:57:12.363Z,59.8
2023-10-24T12:02:48.014Z,52.7
2023-10-24T12:08:24.985Z,52.6
2023-10-24T12:14:00.792Z,48.2
2023-10-24T12:19:38.338Z,52.8
2023-10-24T12:25:20.866Z,49.5
2023-10-24T12:30:58.884Z,40.8
2023-10-24T12:36:35.704Z,40
2023-10-24T12:42:11.644Z,43.5
2023-10-24T12:47:47.048Z,43
2023-10-24T12:53:23.137Z,39.3
2023-10-24T12:58:58.942Z,45.1
2023-10-24T13:04:34.732Z,43.1
2023-10-24T13:10:10.319Z,45.6
2023-10-24T13:15:46.377Z,44.8
2023-10-24T13:21:22.652Z,49.9
2023-10-24T13:26:58.165Z,48.7
2023-10-24T13:32:34.588Z,50.9
2023-10-24T13:38:12.473Z,54.1
2023-10-24T13:43:48.268Z,53.4
2023-10-24T13:49:24.249Z,52.8
2023-10-24T13:54:59.220Z,42
2023-10-24T14:00:34.566Z,53.1
2023-10-24T14:06:10.330Z,54.8
2023-10-24T14:11:46.392Z,58.5
2023-10-24T14:17:21.771Z,59.1
2023-10-24T14:22:57.558Z,56.1
2023-10-24T14:28:33.345Z,54
2023-10-24T14:34:09.347Z,53.8
2023-10-24T14:39:44.641Z,55.1
2023-10-24T14:45:21.564Z,53.7
2023-10-24T14:50:56.733Z,58.3
2023-10-24T14:56:32.107Z,57.5
2023-10-24T15:02:07.369Z,58.7
2023-10-24T15:07:43.689Z,57.3
2023-10-24T15:13:19.696Z,54.7
2023-10-24T15:18:54.615Z,51.7
2023-10-24T15:24:29.743Z,55.7
2023-10-24T15:30:04.982Z,58
2023-10-24T15:35:40.761Z,59.8
2023-10-24T15:41:15.994Z,59.5
2023-10-24T15:46:53.574Z,62.7
2023-10-24T15:52:29.100Z,60.2
2023-10-24T15:58:07.035Z,62.8
2023-10-24T16:03:42.968Z,59.4
2023-10-24T16:09:20.029Z,63.5
2023-10-24T16:14:54.907Z,64.9
2023-10-24T16:20:31.050Z,65.8
2023-10-24T16:26:06.018Z,66.7
2023-10-24T16:31:42.288Z,70.3
2023-10-24T16:37:18.910Z,69.9
2023-10-24T16:42:53.975Z,70.4
2023-10-24T16:48:29.802Z,71.6
2023-10-24T16:54:05.300Z,74.2
2023-10-24T16:59:40.097Z,71
2023-10-24T17:05:15.775Z,69.3
2023-10-24T17:10:52.481Z,71.9
2023-10-24T17:16:28.963Z,73.5
2023-10-24T17:22:06.367Z,76.8
2023-10-24T17:27:42.208Z,78.1
2023-10-24T17:33:17.755Z,80.1
2023-10-24T17:38:53.428Z,81.3
2023-10-24T17:44:29.228Z,81.8
2023-10-24T17:50:04.429Z,79
2023-10-24T17:55:41.364Z,78.8
2023-10-24T18:01:18.572Z,79.3
2023-10-24T18:06:54.048Z,79.7
2023-10-24T18:12:29.316Z,79
2023-10-24T18:18:06.070Z,79.7
2023-10-24T18:23:42.249Z,77.5
2023-10-24T18:29:17.738Z,78.9
2023-10-24T18:34:53.835Z,78.9
2023-10-24T18:40:29.716Z,79
2023-10-24T18:46:05.085Z,74.9
2023-10-24T18:51:41.725Z,73.3
2023-10-24T18:57:16.584Z,72.6
2023-10-24T19:02:54.421Z,72.6
2023-10-24T19:08:30.167Z,73.1
2023-10-24T19:14:06.362Z,73.6
2023-10-24T19:19:42.396Z,74.3
2023-10-24T19:25:19.859Z,74.3
2023-10-24T19:30:57.515Z,74.4
2023-10-24T19:36:34.122Z,74.4
2023-10-24T19:42:09.930Z,74.7
2023-10-24T19:47:47.658Z,74.6
2023-10-24T19:53:24.513Z,75
2023-10-24T19:59:01.081Z,74.8
2023-10-24T20:04:37.470Z,74.8
2023-10-24T20:12:40.252Z,74.2
2023-10-24T20:18:23.724Z,73.3
2023-10-24T20:23:59.722Z,73.2
2023-10-24T20:29:35.774Z,73
2023-10-24T20:35:13.247Z,72.6
2023-10-24T20:40:48.793Z,72.1
2023-10-24T20:46:25.592Z,71.6
2023-10-24T20:52:01.887Z,70.5
2023-10-24T20:57:38.367Z,70.3
2023-10-24T21:03:14.915Z,70.3
2023-10-24T21:08:51.728Z,70.3
2023-10-24T21:14:27.660Z,70.7
2023-10-24T21:20:04.042Z,71.3
2023-10-24T21:25:40.097Z,71.7
2023-10-24T21:31:16.301Z,72.2
2023-10-24T21:36:53.594Z,72.7
2023-10-24T21:42:30.970Z,72.3
2023-10-24T21:48:07.710Z,71.1
2023-10-24T21:53:44.333Z,69
2023-10-24T21:59:27.574Z,68.5
2023-10-24T22:05:03.548Z,69.1
2023-10-24T22:10:39.116Z,68.5
2023-10-24T22:16:16.055Z,69.1
2023-10-24T22:21:53.267Z,70.3
2023-10-24T22:27:30.075Z,71.2
2023-10-24T22:33:05.952Z,71.9
2023-10-24T22:38:43.573Z,71.9
2023-10-24T22:44:19.758Z,71.5
2023-10-24T22:49:57.070Z,71.1
2023-10-24T22:55:33.636Z,70.1
2023-10-24T23:01:10.365Z,70.2
2023-10-24T23:06:47.341Z,71.2
2023-10-24T23:12:24.275Z,71.9
2023-10-24T23:18:00.177Z,72.4
2023-10-24T23:23:36.900Z,72.9
2023-10-24T23:29:13.594Z,73
2023-10-24T23:34:49.724Z,73.1
2023-10-24T23:40:25.873Z,73.3
2023-10-24T23:46:01.932Z,73.1
2023-10-24T23:51:38.405Z,72.9
2023-10-24T23:57:15.898Z,73
